createdAt,value
2023-03-23T00:03:11.919Z,1.49
2023-03-23T00:07:12.038Z,1.11
2023-03-23T00:11:12.055Z,1.19
2023-03-23T00:15:12.159Z,1.30
2023-03-23T00:19:12.239Z,1.30
2023-03-23T00:23:12.245Z,1.20
2023-03-23T00:27:12.310Z,1.25
2023-03-23T00:31:12.426Z,1.50
2023-03-23T00:35:12.520Z,1.52
2023-03-23T00:39:12.576Z,1.29
2023-03-23T00:43:12.652Z,1.23
2023-03-23T00:47:12.778Z,1.02
2023-03-23T00:51:12.907Z,1.57
2023-03-23T00:55:12.977Z,1.24
2023-03-23T00:59:12.995Z,1.47
2023-03-23T01:03:13.028Z,1.44
2023-03-23T01:07:13.000Z,1.21
2023-03-23T01:11:13.010Z,1.19
2023-03-23T01:15:13.040Z,1.34
2023-03-23T01:19:13.084Z,1.45
2023-03-23T01:23:13.151Z,1.32
2023-03-23T01:27:13.105Z,1.32
2023-03-23T01:31:14.596Z,1.39
2023-03-23T01:35:13.103Z,1.45
2023-03-23T01:39:13.090Z,1.30
2023-03-23T01:43:13.094Z,1.55
2023-03-23T01:47:13.096Z,0.99
2023-03-23T01:51:13.112Z,1.63
2023-03-23T01:55:13.026Z,1.34
2023-03-23T01:59:13.449Z,1.53
2023-03-23T02:03:13.011Z,1.15
2023-03-23T02:07:12.990Z,1.59
2023-03-23T02:11:12.958Z,1.48
2023-03-23T02:15:13.918Z,1.39
2023-03-23T02:19:12.856Z,1.23
2023-03-23T02:23:12.855Z,1.32
2023-03-23T02:27:12.809Z,1.43
2023-03-23T02:31:12.780Z,0.95
2023-03-23T02:35:12.766Z,1.22
2023-03-23T02:39:12.725Z,1.69
2023-03-23T02:43:12.642Z,1.42
2023-03-23T02:47:12.602Z,1.58
2023-03-23T02:51:12.669Z,1.34
2023-03-23T02:55:12.551Z,1.15
2023-03-23T02:59:12.475Z,1.46
2023-03-23T03:03:12.446Z,1.40
2023-03-23T03:07:12.458Z,1.65
2023-03-23T03:11:12.492Z,1.26
2023-03-23T03:15:12.468Z,1.12
2023-03-23T03:19:12.477Z,1.50
2023-03-23T03:23:13.486Z,1.71
2023-03-23T03:27:12.588Z,1.08
2023-03-23T03:31:12.560Z,1.06
2023-03-23T03:35:12.573Z,1.47
2023-03-23T03:39:12.612Z,1.30
2023-03-23T03:43:12.731Z,1.95
2023-03-23T03:47:12.655Z,1.22
2023-03-23T03:51:12.669Z,1.62
2023-03-23T03:55:12.715Z,1.59
2023-03-23T03:59:21.569Z,1.17
2023-03-23T04:03:13.725Z,1.38
2023-03-23T04:07:12.662Z,1.19
2023-03-23T04:11:12.641Z,1.09
2023-03-23T04:15:13.597Z,1.32
2023-03-23T04:19:13.003Z,1.30
2023-03-23T04:23:12.574Z,1.43
2023-03-23T04:27:12.490Z,1.60
2023-03-23T04:31:12.491Z,1.07
2023-03-23T04:35:14.158Z,1.31
2023-03-23T04:39:12.385Z,1.44
2023-03-23T04:43:12.390Z,1.05
2023-03-23T04:47:12.319Z,1.44
2023-03-23T04:51:12.279Z,1.10
2023-03-23T04:55:12.497Z,1.24
2023-03-23T04:59:12.198Z,1.78
2023-03-23T05:03:12.236Z,1.59
2023-03-23T05:07:12.343Z,1.25
2023-03-23T05:11:12.422Z,1.37
2023-03-23T05:15:12.537Z,1.37
2023-03-23T05:19:12.658Z,1.42
2023-03-23T05:23:15.510Z,1.62
2023-03-23T05:27:12.695Z,1.36
2023-03-23T05:31:13.043Z,1.36
2023-03-23T05:35:12.619Z,1.32
2023-03-23T05:39:12.540Z,1.09
2023-03-23T05:43:12.560Z,1.62
2023-03-23T05:47:12.556Z,1.69
2023-03-23T05:51:12.421Z,1.57
2023-03-23T05:55:12.385Z,1.64
2023-03-23T05:59:12.404Z,1.31
2023-03-23T06:03:12.347Z,0.99
2023-03-23T06:07:12.312Z,1.33
2023-03-23T06:11:12.269Z,1.61
2023-03-23T06:15:12.359Z,1.29
2023-03-23T06:19:14.057Z,1.63
2023-03-23T06:23:12.669Z,1.62
2023-03-23T06:27:15.779Z,2.15
2023-03-23T06:35:31.794Z,1.77
2023-03-23T06:43:51.368Z,2.60
2023-03-23T06:47:58.202Z,2.67
2023-03-23T07:09:07.549Z,3.02
2023-03-23T07:13:07.754Z,2.82
2023-03-23T07:17:07.768Z,2.82
2023-03-23T07:21:23.107Z,3.87
2023-03-23T07:25:35.986Z,3.17
2023-03-23T07:38:06.630Z,4.44
2023-03-23T07:42:12.484Z,3.29
2023-03-23T07:46:20.234Z,3.87
2023-03-23T07:54:23.542Z,4.49
2023-03-23T07:58:23.768Z,4.01
2023-03-23T08:02:23.608Z,3.85
2023-03-23T08:06:23.732Z,4.13
2023-03-23T08:10:24.452Z,3.86
2023-03-23T08:14:23.557Z,4.29
2023-03-23T08:22:52.806Z,4.17
2023-03-23T08:26:49.078Z,4.58
2023-03-23T08:30:43.842Z,4.05
2023-03-23T08:34:42.737Z,4.48
2023-03-23T08:43:01.823Z,4.65
2023-03-23T08:51:35.045Z,4.15
2023-03-23T08:55:21.398Z,3.55
2023-03-23T08:59:24.346Z,4.28
2023-03-23T09:03:22.968Z,4.32
2023-03-23T09:07:21.140Z,4.32
2023-03-23T09:11:29.162Z,3.94
2023-03-23T09:19:42.608Z,5.10
2023-03-23T09:23:49.257Z,5.27
2023-03-23T09:27:46.914Z,4.09
2023-03-23T09:36:13.193Z,4.57
2023-03-23T09:40:06.457Z,4.26
2023-03-23T09:48:24.104Z,5.02
2023-03-23T09:52:22.952Z,5.11
2023-03-23T09:56:32.322Z,5.85
2023-03-23T10:00:17.922Z,5.52
2023-03-23T10:08:41.048Z,5.31
2023-03-23T10:12:38.170Z,6.00
2023-03-23T10:16:37.890Z,6.26
2023-03-23T10:20:40.652Z,6.52
2023-03-23T10:28:56.021Z,5.64
2023-03-23T10:32:55.877Z,5.14
2023-03-23T10:36:58.270Z,5.02
2023-03-23T10:40:55.974Z,5.60
2023-03-23T10:44:56.433Z,5.20
2023-03-23T10:53:15.169Z,5.57
2023-03-23T10:57:15.372Z,5.38
2023-03-23T11:01:18.728Z,5.77
2023-03-23T11:09:15.916Z,4.94
2023-03-23T11:13:15.916Z,5.24
2023-03-23T11:17:16.086Z,5.48
2023-03-23T11:21:15.406Z,5.40
2023-03-23T11:25:15.285Z,5.16
2023-03-23T11:29:17.403Z,4.71
2023-03-23T11:33:15.548Z,5.96
2023-03-23T11:37:18.490Z,5.64
2023-03-23T11:41:15.327Z,5.69
2023-03-23T11:45:15.333Z,5.93
2023-03-23T11:49:25.095Z,5.08
2023-03-23T11:53:16.261Z,5.94
2023-03-23T11:57:16.380Z,5.66
2023-03-23T12:01:15.427Z,5.49
2023-03-23T12:05:15.401Z,5.99
2023-03-23T12:09:15.992Z,5.96
2023-03-23T12:13:18.630Z,5.44
2023-03-23T12:17:17.058Z,6.66
2023-03-23T12:21:18.489Z,6.00
2023-03-23T12:25:15.412Z,6.77
2023-03-23T12:29:15.378Z,6.48
2023-03-23T12:33:15.559Z,4.74
2023-03-23T12:37:15.598Z,6.27
2023-03-23T12:41:15.675Z,5.73
2023-03-23T12:45:15.741Z,4.98
2023-03-23T12:49:15.918Z,6.31
2023-03-23T12:53:16.098Z,5.80
2023-03-23T12:57:16.165Z,4.91
2023-03-23T13:01:16.037Z,5.15
2023-03-23T13:05:15.924Z,5.12
2023-03-23T13:09:16.011Z,4.84
2023-03-23T13:13:21.183Z,4.39
2023-03-23T13:17:16.884Z,5.15
2023-03-23T13:21:15.999Z,6.16
2023-03-23T13:25:16.134Z,5.15
2023-03-23T13:29:16.366Z,5.23
2023-03-23T13:33:16.555Z,5.17
2023-03-23T13:37:17.134Z,5.78
2023-03-23T13:41:16.999Z,5.32
2023-03-23T13:45:17.185Z,5.74
2023-03-23T13:49:17.353Z,4.60
2023-03-23T13:53:17.377Z,4.81
2023-03-23T13:57:17.501Z,5.07
2023-03-23T14:01:17.269Z,5.55
2023-03-23T14:05:17.234Z,5.29
2023-03-23T14:09:17.975Z,5.42
2023-03-23T14:13:17.077Z,4.96
2023-03-23T14:17:18.075Z,5.57
2023-03-23T14:21:17.016Z,4.75
2023-03-23T14:25:16.983Z,4.88
2023-03-23T14:29:16.962Z,5.37
2023-03-23T14:33:16.882Z,4.81
2023-03-23T14:37:19.566Z,4.98
2023-03-23T14:41:17.607Z,5.07
2023-03-23T14:45:16.772Z,4.95
2023-03-23T14:49:16.833Z,5.05
2023-03-23T14:53:16.686Z,5.07
2023-03-23T14:57:16.669Z,5.07
2023-03-23T15:01:16.626Z,4.51
2023-03-23T15:05:16.609Z,5.24
2023-03-23T15:09:16.591Z,4.73
2023-03-23T15:13:17.087Z,4.85
2023-03-23T15:17:16.543Z,4.94
2023-03-23T15:21:16.619Z,4.71
2023-03-23T15:25:16.376Z,4.73
2023-03-23T15:29:16.471Z,4.76
2023-03-23T15:33:17.453Z,5.39
2023-03-23T15:37:20.474Z,4.57
2023-03-23T15:41:16.369Z,4.28
2023-03-23T15:45:16.344Z,5.23
2023-03-23T15:49:16.226Z,4.85
2023-03-23T15:53:16.189Z,4.92
2023-03-23T15:57:16.270Z,4.61
2023-03-23T16:01:16.441Z,5.56
2023-03-23T16:05:16.586Z,6.06
2023-03-23T16:09:16.757Z,6.36
2023-03-23T16:13:16.859Z,5.71
2023-03-23T16:17:16.715Z,5.76
2023-03-23T16:21:16.625Z,6.00
2023-03-23T16:25:16.706Z,6.62
2023-03-23T16:29:28.274Z,5.61
2023-03-23T16:33:17.622Z,5.62
2023-03-23T16:37:16.697Z,6.35
2023-03-23T16:41:16.641Z,5.50
2023-03-23T16:45:16.566Z,6.32
2023-03-23T16:49:16.513Z,5.30
2023-03-23T16:53:16.440Z,5.95
2023-03-23T16:57:16.424Z,5.78
2023-03-23T17:01:16.442Z,6.26
2023-03-23T17:05:16.362Z,5.71
2023-03-23T17:09:16.367Z,5.64
2023-03-23T17:13:16.268Z,5.77
2023-03-23T17:17:16.280Z,6.13
2023-03-23T17:21:16.212Z,5.17
2023-03-23T17:25:16.229Z,5.82
2023-03-23T17:29:16.094Z,5.42
2023-03-23T17:33:16.121Z,6.00
2023-03-23T17:37:16.510Z,5.96
2023-03-23T17:41:16.068Z,6.30
2023-03-23T17:45:16.149Z,6.48
2023-03-23T17:49:16.113Z,5.31
2023-03-23T17:53:16.191Z,5.25
2023-03-23T17:57:16.150Z,5.52
2023-03-23T18:01:16.131Z,6.81
2023-03-23T18:05:16.041Z,6.02
2023-03-23T18:09:16.015Z,5.78
2023-03-23T18:13:16.042Z,5.65
2023-03-23T18:17:16.060Z,5.48
2023-03-23T18:21:15.981Z,5.85
2023-03-23T18:25:15.850Z,5.56
2023-03-23T18:29:15.828Z,6.11
2023-03-23T18:33:16.210Z,5.64
2023-03-23T18:37:15.915Z,5.30
2023-03-23T18:41:15.787Z,6.07
2023-03-23T18:45:15.754Z,5.75
2023-03-23T18:49:16.619Z,5.82
2023-03-23T18:53:15.706Z,5.71
2023-03-23T18:57:15.700Z,5.23
2023-03-23T19:01:15.631Z,5.81
2023-03-23T19:05:15.524Z,5.84
2023-03-23T19:09:15.603Z,5.85
2023-03-23T19:13:15.771Z,5.54
2023-03-23T19:17:15.865Z,5.38
2023-03-23T19:21:18.682Z,5.25
2023-03-23T19:25:16.040Z,6.30
2023-03-23T19:29:25.400Z,5.77
2023-03-23T19:33:16.886Z,5.12
2023-03-23T19:37:16.265Z,5.54
2023-03-23T19:41:16.426Z,5.01
2023-03-23T19:45:15.940Z,5.01
2023-03-23T19:49:15.753Z,5.60
2023-03-23T19:53:15.919Z,5.44
2023-03-23T19:57:15.807Z,5.59
2023-03-23T20:01:15.849Z,5.51
2023-03-23T20:05:16.528Z,5.44
2023-03-23T20:09:15.604Z,6.12
2023-03-23T20:13:15.580Z,5.21
2023-03-23T20:17:15.857Z,5.95
2023-03-23T20:21:15.534Z,5.89
2023-03-23T20:25:15.666Z,5.99
2023-03-23T20:29:15.416Z,5.44
2023-03-23T20:33:15.515Z,5.53
2023-03-23T20:37:15.657Z,5.17
2023-03-23T20:41:15.871Z,5.00
2023-03-23T20:45:15.964Z,6.03
2023-03-23T20:49:16.223Z,5.41
2023-03-23T20:53:16.519Z,5.46
2023-03-23T20:57:16.376Z,4.83
2023-03-23T21:01:16.530Z,5.10
2023-03-23T21:05:16.630Z,5.00
2023-03-23T21:09:16.287Z,5.23
2023-03-23T21:13:16.265Z,5.91
2023-03-23T21:17:16.246Z,5.25
2023-03-23T21:21:16.303Z,5.69
2023-03-23T21:25:16.281Z,5.56
2023-03-23T21:29:16.250Z,5.33
2023-03-23T21:33:16.228Z,5.23
2023-03-23T21:37:16.204Z,5.30
2023-03-23T21:41:16.172Z,5.50
2023-03-23T21:45:16.755Z,5.37
2023-03-23T21:49:16.109Z,5.04
2023-03-23T21:53:15.983Z,5.01
2023-03-23T21:57:16.045Z,4.82
2023-03-23T22:01:15.953Z,5.05
2023-03-23T22:05:15.897Z,5.46
2023-03-23T22:09:15.880Z,5.40
2023-03-23T22:13:15.922Z,4.79
2023-03-23T22:17:15.814Z,5.58
2023-03-23T22:21:15.802Z,4.65
2023-03-23T22:25:15.817Z,4.85
2023-03-23T22:29:15.710Z,4.61
2023-03-23T22:33:15.725Z,5.25
2023-03-23T22:37:15.762Z,4.67
2023-03-23T22:41:17.712Z,4.87
2023-03-23T22:45:15.857Z,4.15
2023-03-23T22:49:15.702Z,5.22
2023-03-23T22:53:15.888Z,4.70
2023-03-23T22:57:16.140Z,4.46
2023-03-23T23:01:16.266Z,4.84
2023-03-23T23:05:16.322Z,5.04
2023-03-23T23:09:16.298Z,4.31
2023-03-23T23:13:19.223Z,4.34
2023-03-23T23:17:16.432Z,4.76
2023-03-23T23:21:16.414Z,4.94
2023-03-23T23:25:16.368Z,4.57
2023-03-23T23:29:16.249Z,4.51
2023-03-23T23:33:16.209Z,4.81
2023-03-23T23:37:16.171Z,4.71
2023-03-23T23:41:16.161Z,4.92
2023-03-23T23:45:16.125Z,4.42
2023-03-23T23:49:16.104Z,4.75
2023-03-23T23:53:16.091Z,4.99
2023-03-23T23:57:16.023Z,4.48
